Tallassee, Alabama
Current Conditions -  °F | °C
As of 9:55 AM on Tuesday 21 Oct 2014 (Local Time) from KALX Reporting Station
Clear Clear  
Wind Chill: 69°   Ceiling: Unl
Heat Index: 69°   Visibility: 10mi
Dew Point: 55°   Wind: 0mph
Humidity: 62%   Direction: NA
Pressure: 30.07"   Gusts: NA
Location:  32.54°N, 85.89°W
Report Text: KALX 211455Z AUTO 00000KT 10SM CLR 20/13 A3007 RMK AO2 T02030129
Loading
Personal Weather Stations






























Interactive Weather Map
Tropical Storm Tracking
New forecast layout! Learn more

10-Day Weather Forecast

Advertisements
Track Severe Weather on mobile